sensor_id;sensor_type;location;lat;lon;timestamp;temperature;humidity
21759;DHT22;11041;50.854;20.580;2023-03-21T00:02:21;8.80;99.90
21759;DHT22;11041;50.854;20.580;2023-03-21T00:04:49;8.80;99.90
21759;DHT22;11041;50.854;20.580;2023-03-21T00:07:15;8.80;99.90
21759;DHT22;11041;50.854;20.580;2023-03-21T00:09:42;8.90;99.90
21759;DHT22;11041;50.854;20.580;2023-03-21T00:12:08;8.80;99.90
21759;DHT22;11041;50.854;20.580;2023-03-21T00:14:36;8.80;99.90
21759;DHT22;11041;50.854;20.580;2023-03-21T00:17:04;8.90;99.90
21759;DHT22;11041;50.854;20.580;2023-03-21T00:19:30;8.90;99.90
21759;DHT22;11041;50.854;20.580;2023-03-21T00:21:57;8.90;99.90
21759;DHT22;11041;50.854;20.580;2023-03-21T00:24:23;8.90;99.90
21759;DHT22;11041;50.854;20.580;2023-03-21T00:26:51;8.90;99.90
21759;DHT22;11041;50.854;20.580;2023-03-21T00:29:17;8.90;99.90
21759;DHT22;11041;50.854;20.580;2023-03-21T00:31:44;8.80;99.90
21759;DHT22;11041;50.854;20.580;2023-03-21T00:34:10;8.80;99.90
21759;DHT22;11041;50.854;20.580;2023-03-21T00:36:37;8.80;99.90
21759;DHT22;11041;50.854;20.580;2023-03-21T00:39:03;8.80;99.90
21759;DHT22;11041;50.854;20.580;2023-03-21T00:41:31;8.80;99.90
21759;DHT22;11041;50.854;20.580;2023-03-21T00:44:01;8.80;99.90
21759;DHT22;11041;50.854;20.580;2023-03-21T00:46:29;8.80;99.90
21759;DHT22;11041;50.854;20.580;2023-03-21T00:48:55;8.80;99.90
21759;DHT22;11041;50.854;20.580;2023-03-21T00:51:23;8.80;99.90
21759;DHT22;11041;50.854;20.580;2023-03-21T00:53:54;8.80;99.90
21759;DHT22;11041;50.854;20.580;2023-03-21T00:56:21;8.80;99.90
21759;DHT22;11041;50.854;20.580;2023-03-21T00:58:48;8.80;99.90
21759;DHT22;11041;50.854;20.580;2023-03-21T01:01:16;8.70;99.90
21759;DHT22;11041;50.854;20.580;2023-03-21T01:03:43;8.70;99.90
21759;DHT22;11041;50.854;20.580;2023-03-21T01:06:13;8.70;99.90
21759;DHT22;11041;50.854;20.580;2023-03-21T01:08:45;8.70;99.90
21759;DHT22;11041;50.854;20.580;2023-03-21T01:11:16;8.70;99.90
21759;DHT22;11041;50.854;20.580;2023-03-21T01:13:45;8.70;99.90
21759;DHT22;11041;50.854;20.580;2023-03-21T01:16:13;8.70;99.90
21759;DHT22;11041;50.854;20.580;2023-03-21T01:18:40;8.70;99.90
21759;DHT22;11041;50.854;20.580;2023-03-21T01:21:10;8.70;99.90
21759;DHT22;11041;50.854;20.580;2023-03-21T01:23:39;8.70;99.90
21759;DHT22;11041;50.854;20.580;2023-03-21T01:26:09;8.70;99.90
21759;DHT22;11041;50.854;20.580;2023-03-21T01:28:39;8.80;99.90
21759;DHT22;11041;50.854;20.580;2023-03-21T01:31:07;8.80;99.90
21759;DHT22;11041;50.854;20.580;2023-03-21T01:33:40;8.80;99.90
21759;DHT22;11041;50.854;20.580;2023-03-21T01:36:20;8.80;99.90
21759;DHT22;11041;50.854;20.580;2023-03-21T01:38:48;8.80;99.90
21759;DHT22;11041;50.854;20.580;2023-03-21T01:43:54;8.80;99.90
21759;DHT22;11041;50.854;20.580;2023-03-21T01:46:25;8.70;99.90
21759;DHT22;11041;50.854;20.580;2023-03-21T01:48:58;8.70;99.90
21759;DHT22;11041;50.854;20.580;2023-03-21T01:51:35;8.70;99.90
21759;DHT22;11041;50.854;20.580;2023-03-21T01:54:10;8.70;99.90
21759;DHT22;11041;50.854;20.580;2023-03-21T01:56:42;8.70;99.90
21759;DHT22;11041;50.854;20.580;2023-03-21T02:02:04;8.60;99.90
21759;DHT22;11041;50.854;20.580;2023-03-21T02:04:37;8.60;99.90
21759;DHT22;11041;50.854;20.580;2023-03-21T02:07:08;8.60;99.90
21759;DHT22;11041;50.854;20.580;2023-03-21T02:09:45;8.60;99.90
21759;DHT22;11041;50.854;20.580;2023-03-21T02:12:14;8.50;99.90
21759;DHT22;11041;50.854;20.580;2023-03-21T02:14:41;8.50;99.90
21759;DHT22;11041;50.854;20.580;2023-03-21T02:17:37;8.50;99.90
21759;DHT22;11041;50.854;20.580;2023-03-21T02:20:53;8.50;99.90
21759;DHT22;11041;50.854;20.580;2023-03-21T02:29:44;8.50;99.90
21759;DHT22;11041;50.854;20.580;2023-03-21T02:36:20;8.60;99.90
21759;DHT22;11041;50.854;20.580;2023-03-21T02:47:38;8.60;99.90
21759;DHT22;11041;50.854;20.580;2023-03-21T02:53:27;8.60;99.90
21759;DHT22;11041;50.854;20.580;2023-03-21T02:56:01;8.50;99.90
21759;DHT22;11041;50.854;20.580;2023-03-21T02:58:31;8.60;99.90
21759;DHT22;11041;50.854;20.580;2023-03-21T03:00:58;8.50;99.90
21759;DHT22;11041;50.854;20.580;2023-03-21T03:03:24;8.50;99.90
21759;DHT22;11041;50.854;20.580;2023-03-21T03:05:56;8.50;99.90
21759;DHT22;11041;50.854;20.580;2023-03-21T03:08:54;8.50;99.90
21759;DHT22;11041;50.854;20.580;2023-03-21T03:11:30;8.50;99.90
21759;DHT22;11041;50.854;20.580;2023-03-21T03:26:47;8.40;99.90
21759;DHT22;11041;50.854;20.580;2023-03-21T03:29:00;8.40;99.90
21759;DHT22;11041;50.854;20.580;2023-03-21T03:31:57;8.40;99.90
21759;DHT22;11041;50.854;20.580;2023-03-21T03:34:32;8.40;99.90
21759;DHT22;11041;50.854;20.580;2023-03-21T03:37:07;8.30;99.90
21759;DHT22;11041;50.854;20.580;2023-03-21T03:39:46;8.30;99.90
21759;DHT22;11041;50.854;20.580;2023-03-21T03:42:24;8.30;99.90
21759;DHT22;11041;50.854;20.580;2023-03-21T03:44:55;8.30;99.90
21759;DHT22;11041;50.854;20.580;2023-03-21T03:53:45;8.20;99.90
21759;DHT22;11041;50.854;20.580;2023-03-21T03:56:16;8.20;99.90
21759;DHT22;11041;50.854;20.580;2023-03-21T03:58:43;8.20;99.90
21759;DHT22;11041;50.854;20.580;2023-03-21T04:01:09;8.20;99.90
21759;DHT22;11041;50.854;20.580;2023-03-21T04:03:39;8.10;99.90
21759;DHT22;11041;50.854;20.580;2023-03-21T04:06:08;8.10;99.90
21759;DHT22;11041;50.854;20.580;2023-03-21T04:08:34;8.10;99.90
21759;DHT22;11041;50.854;20.580;2023-03-21T04:11:02;8.10;99.90
21759;DHT22;11041;50.854;20.580;2023-03-21T04:13:29;8.10;99.90
21759;DHT22;11041;50.854;20.580;2023-03-21T04:15:55;8.00;99.90
21759;DHT22;11041;50.854;20.580;2023-03-21T04:18:22;8.10;99.90
21759;DHT22;11041;50.854;20.580;2023-03-21T04:20:49;8.00;99.90
21759;DHT22;11041;50.854;20.580;2023-03-21T04:23:17;8.00;99.90
21759;DHT22;11041;50.854;20.580;2023-03-21T04:25:45;8.00;99.90
21759;DHT22;11041;50.854;20.580;2023-03-21T04:28:12;7.90;99.90
21759;DHT22;11041;50.854;20.580;2023-03-21T04:30:38;7.90;99.90
21759;DHT22;11041;50.854;20.580;2023-03-21T04:33:06;7.80;99.90
21759;DHT22;11041;50.854;20.580;2023-03-21T04:35:33;7.80;99.90
21759;DHT22;11041;50.854;20.580;2023-03-21T04:38:01;7.80;99.90
21759;DHT22;11041;50.854;20.580;2023-03-21T04:40:28;7.80;99.90
21759;DHT22;11041;50.854;20.580;2023-03-21T04:42:54;7.80;99.90
21759;DHT22;11041;50.854;20.580;2023-03-21T04:45:21;7.80;99.90
21759;DHT22;11041;50.854;20.580;2023-03-21T04:47:48;7.80;99.90
21759;DHT22;11041;50.854;20.580;2023-03-21T04:50:15;7.70;99.90
21759;DHT22;11041;50.854;20.580;2023-03-21T04:52:41;7.80;99.90
21759;DHT22;11041;50.854;20.580;2023-03-21T04:55:08;7.80;99.90
21759;DHT22;11041;50.854;20.580;2023-03-21T04:57:37;7.70;99.90
21759;DHT22;11041;50.854;20.580;2023-03-21T05:00:06;7.70;99.90
21759;DHT22;11041;50.854;20.580;2023-03-21T05:02:36;7.70;99.90
21759;DHT22;11041;50.854;20.580;2023-03-21T05:05:04;7.70;99.90
21759;DHT22;11041;50.854;20.580;2023-03-21T05:07:32;7.80;99.90
21759;DHT22;11041;50.854;20.580;2023-03-21T05:09:58;7.80;99.90
21759;DHT22;11041;50.854;20.580;2023-03-21T05:12:25;7.80;99.90
21759;DHT22;11041;50.854;20.580;2023-03-21T05:14:51;7.80;99.90
21759;DHT22;11041;50.854;20.580;2023-03-21T05:17:18;7.80;99.90
21759;DHT22;11041;50.854;20.580;2023-03-21T05:19:48;7.80;99.90
21759;DHT22;11041;50.854;20.580;2023-03-21T05:22:15;7.90;99.90
21759;DHT22;11041;50.854;20.580;2023-03-21T05:24:44;7.90;99.90
21759;DHT22;11041;50.854;20.580;2023-03-21T05:27:16;7.90;99.90
21759;DHT22;11041;50.854;20.580;2023-03-21T05:30:08;7.90;99.90
21759;DHT22;11041;50.854;20.580;2023-03-21T05:32:37;7.90;99.90
21759;DHT22;11041;50.854;20.580;2023-03-21T05:35:04;7.90;99.90
21759;DHT22;11041;50.854;20.580;2023-03-21T05:37:32;7.90;99.90
21759;DHT22;11041;50.854;20.580;2023-03-21T05:39:59;7.90;99.90
21759;DHT22;11041;50.854;20.580;2023-03-21T05:42:26;8.00;99.90
21759;DHT22;11041;50.854;20.580;2023-03-21T05:44:53;8.00;99.90
21759;DHT22;11041;50.854;20.580;2023-03-21T05:47:19;8.00;99.90
21759;DHT22;11041;50.854;20.580;2023-03-21T05:49:46;8.00;99.90
21759;DHT22;11041;50.854;20.580;2023-03-21T05:52:12;8.10;99.90
21759;DHT22;11041;50.854;20.580;2023-03-21T05:54:39;8.10;99.90
21759;DHT22;11041;50.854;20.580;2023-03-21T05:57:06;8.10;99.90
21759;DHT22;11041;50.854;20.580;2023-03-21T05:59:33;8.10;99.90
21759;DHT22;11041;50.854;20.580;2023-03-21T06:02:00;8.10;99.90
21759;DHT22;11041;50.854;20.580;2023-03-21T06:04:26;8.10;99.90
21759;DHT22;11041;50.854;20.580;2023-03-21T06:06:53;8.20;99.90
21759;DHT22;11041;50.854;20.580;2023-03-21T06:09:21;8.20;99.90
21759;DHT22;11041;50.854;20.580;2023-03-21T06:11:51;8.20;99.90
21759;DHT22;11041;50.854;20.580;2023-03-21T06:14:20;8.30;99.90
21759;DHT22;11041;50.854;20.580;2023-03-21T06:16:48;8.30;99.90
21759;DHT22;11041;50.854;20.580;2023-03-21T06:19:15;8.40;99.90
21759;DHT22;11041;50.854;20.580;2023-03-21T06:21:42;8.40;99.90
21759;DHT22;11041;50.854;20.580;2023-03-21T06:24:09;8.40;99.90
21759;DHT22;11041;50.854;20.580;2023-03-21T06:26:36;8.40;99.90
21759;DHT22;11041;50.854;20.580;2023-03-21T06:29:03;8.50;99.90
21759;DHT22;11041;50.854;20.580;2023-03-21T06:31:30;8.60;99.90
21759;DHT22;11041;50.854;20.580;2023-03-21T06:33:56;8.60;99.90
21759;DHT22;11041;50.854;20.580;2023-03-21T06:36:23;8.70;99.90
21759;DHT22;11041;50.854;20.580;2023-03-21T06:38:49;8.70;99.90
21759;DHT22;11041;50.854;20.580;2023-03-21T06:41:17;8.70;99.90
21759;DHT22;11041;50.854;20.580;2023-03-21T06:43:44;8.70;99.90
21759;DHT22;11041;50.854;20.580;2023-03-21T06:46:11;8.70;99.90
21759;DHT22;11041;50.854;20.580;2023-03-21T06:48:37;8.70;99.90
21759;DHT22;11041;50.854;20.580;2023-03-21T06:51:11;8.80;99.90
21759;DHT22;11041;50.854;20.580;2023-03-21T06:53:39;8.90;99.90
21759;DHT22;11041;50.854;20.580;2023-03-21T06:56:08;8.90;99.90
21759;DHT22;11041;50.854;20.580;2023-03-21T06:58:36;8.90;99.90
21759;DHT22;11041;50.854;20.580;2023-03-21T07:01:04;8.90;99.90
21759;DHT22;11041;50.854;20.580;2023-03-21T07:03:33;8.90;99.90
21759;DHT22;11041;50.854;20.580;2023-03-21T07:06:08;8.90;99.90
21759;DHT22;11041;50.854;20.580;2023-03-21T07:08:38;8.90;99.90
21759;DHT22;11041;50.854;20.580;2023-03-21T07:11:07;8.90;99.90
21759;DHT22;11041;50.854;20.580;2023-03-21T07:13:34;8.90;99.90
21759;DHT22;11041;50.854;20.580;2023-03-21T07:16:01;8.80;99.90
21759;DHT22;11041;50.854;20.580;2023-03-21T07:18:28;8.80;99.90
21759;DHT22;11041;50.854;20.580;2023-03-21T07:20:56;8.70;99.90
21759;DHT22;11041;50.854;20.580;2023-03-21T07:23:24;8.70;99.90
21759;DHT22;11041;50.854;20.580;2023-03-21T07:25:52;8.60;99.90
21759;DHT22;11041;50.854;20.580;2023-03-21T07:28:20;8.60;99.90
21759;DHT22;11041;50.854;20.580;2023-03-21T07:30:53;8.60;99.90
21759;DHT22;11041;50.854;20.580;2023-03-21T07:33:31;8.70;99.90
21759;DHT22;11041;50.854;20.580;2023-03-21T07:35:59;8.70;99.90
21759;DHT22;11041;50.854;20.580;2023-03-21T07:38:27;8.80;99.90
21759;DHT22;11041;50.854;20.580;2023-03-21T07:40:58;8.80;99.90
21759;DHT22;11041;50.854;20.580;2023-03-21T07:43:25;8.90;99.90
21759;DHT22;11041;50.854;20.580;2023-03-21T07:45:56;8.80;99.90
21759;DHT22;11041;50.854;20.580;2023-03-21T07:48:23;8.80;99.90
21759;DHT22;11041;50.854;20.580;2023-03-21T07:50:50;8.80;99.90
21759;DHT22;11041;50.854;20.580;2023-03-21T07:53:17;8.80;99.90
21759;DHT22;11041;50.854;20.580;2023-03-21T07:55:48;8.90;99.90
21759;DHT22;11041;50.854;20.580;2023-03-21T07:58:15;8.90;99.90
21759;DHT22;11041;50.854;20.580;2023-03-21T08:00:42;8.90;99.90
21759;DHT22;11041;50.854;20.580;2023-03-21T08:03:08;8.90;99.90
21759;DHT22;11041;50.854;20.580;2023-03-21T08:05:36;9.00;99.90
21759;DHT22;11041;50.854;20.580;2023-03-21T08:08:03;9.00;99.90
21759;DHT22;11041;50.854;20.580;2023-03-21T08:10:31;9.00;99.90
21759;DHT22;11041;50.854;20.580;2023-03-21T08:12:59;9.00;99.90
21759;DHT22;11041;50.854;20.580;2023-03-21T08:15:26;9.10;99.90
21759;DHT22;11041;50.854;20.580;2023-03-21T08:17:52;9.00;99.90
21759;DHT22;11041;50.854;20.580;2023-03-21T08:20:21;9.00;99.90
21759;DHT22;11041;50.854;20.580;2023-03-21T08:22:48;9.00;99.90
21759;DHT22;11041;50.854;20.580;2023-03-21T08:25:17;9.00;99.90
21759;DHT22;11041;50.854;20.580;2023-03-21T08:27:47;9.00;99.90
21759;DHT22;11041;50.854;20.580;2023-03-21T08:30:18;8.90;99.90
21759;DHT22;11041;50.854;20.580;2023-03-21T08:32:49;8.80;99.90
21759;DHT22;11041;50.854;20.580;2023-03-21T08:35:17;8.90;99.90
21759;DHT22;11041;50.854;20.580;2023-03-21T08:37:45;8.90;99.90
21759;DHT22;11041;50.854;20.580;2023-03-21T08:40:16;8.90;99.90
21759;DHT22;11041;50.854;20.580;2023-03-21T08:42:44;8.90;99.90
21759;DHT22;11041;50.854;20.580;2023-03-21T08:45:13;8.90;99.90
21759;DHT22;11041;50.854;20.580;2023-03-21T08:47:41;8.90;99.90
21759;DHT22;11041;50.854;20.580;2023-03-21T08:50:10;8.90;99.90
21759;DHT22;11041;50.854;20.580;2023-03-21T08:52:39;9.00;99.90
21759;DHT22;11041;50.854;20.580;2023-03-21T08:55:06;8.90;99.90
21759;DHT22;11041;50.854;20.580;2023-03-21T08:57:34;8.60;99.90
21759;DHT22;11041;50.854;20.580;2023-03-21T09:00:01;8.60;99.90
21759;DHT22;11041;50.854;20.580;2023-03-21T09:02:32;8.60;99.90
21759;DHT22;11041;50.854;20.580;2023-03-21T09:04:58;8.60;99.90
21759;DHT22;11041;50.854;20.580;2023-03-21T09:07:25;8.50;99.90
21759;DHT22;11041;50.854;20.580;2023-03-21T09:09:53;8.50;99.90
21759;DHT22;11041;50.854;20.580;2023-03-21T09:12:19;8.40;99.90
21759;DHT22;11041;50.854;20.580;2023-03-21T09:14:46;8.40;99.90
21759;DHT22;11041;50.854;20.580;2023-03-21T09:17:13;8.40;99.90
21759;DHT22;11041;50.854;20.580;2023-03-21T09:19:39;8.30;99.90
21759;DHT22;11041;50.854;20.580;2023-03-21T09:22:07;8.40;99.90
21759;DHT22;11041;50.854;20.580;2023-03-21T09:24:40;8.40;99.90
21759;DHT22;11041;50.854;20.580;2023-03-21T09:27:07;8.50;99.90
21759;DHT22;11041;50.854;20.580;2023-03-21T09:29:34;8.60;99.90
21759;DHT22;11041;50.854;20.580;2023-03-21T09:32:01;8.60;99.90
21759;DHT22;11041;50.854;20.580;2023-03-21T09:34:29;8.70;99.90
21759;DHT22;11041;50.854;20.580;2023-03-21T09:36:56;8.60;99.90
21759;DHT22;11041;50.854;20.580;2023-03-21T09:39:23;8.80;99.90
21759;DHT22;11041;50.854;20.580;2023-03-21T09:42:23;8.70;99.90
21759;DHT22;11041;50.854;20.580;2023-03-21T09:45:23;8.50;99.90
21759;DHT22;11041;50.854;20.580;2023-03-21T09:48:00;8.60;99.90
21759;DHT22;11041;50.854;20.580;2023-03-21T09:50:33;8.70;99.90
21759;DHT22;11041;50.854;20.580;2023-03-21T09:53:25;8.80;99.90
21759;DHT22;11041;50.854;20.580;2023-03-21T09:55:59;8.70;99.90
21759;DHT22;11041;50.854;20.580;2023-03-21T09:58:31;8.80;99.90
21759;DHT22;11041;50.854;20.580;2023-03-21T10:01:11;8.80;99.90
21759;DHT22;11041;50.854;20.580;2023-03-21T10:03:52;8.90;99.90
21759;DHT22;11041;50.854;20.580;2023-03-21T10:06:22;9.00;99.90
21759;DHT22;11041;50.854;20.580;2023-03-21T10:09:14;9.10;99.90
21759;DHT22;11041;50.854;20.580;2023-03-21T10:11:50;9.20;99.90
21759;DHT22;11041;50.854;20.580;2023-03-21T10:14:35;9.30;99.90
21759;DHT22;11041;50.854;20.580;2023-03-21T10:20:24;9.20;99.90
21759;DHT22;11041;50.854;20.580;2023-03-21T10:22:54;9.10;99.90
21759;DHT22;11041;50.854;20.580;2023-03-21T10:28:01;9.10;99.90
21759;DHT22;11041;50.854;20.580;2023-03-21T10:33:42;9.20;99.90
21759;DHT22;11041;50.854;20.580;2023-03-21T10:36:15;9.20;99.90
21759;DHT22;11041;50.854;20.580;2023-03-21T10:38:49;9.20;99.90
21759;DHT22;11041;50.854;20.580;2023-03-21T10:41:19;9.30;99.90
21759;DHT22;11041;50.854;20.580;2023-03-21T10:44:04;9.30;99.90
21759;DHT22;11041;50.854;20.580;2023-03-21T10:46:31;9.50;99.90
21759;DHT22;11041;50.854;20.580;2023-03-21T10:48:59;9.40;99.90
21759;DHT22;11041;50.854;20.580;2023-03-21T10:51:29;9.50;99.90
21759;DHT22;11041;50.854;20.580;2023-03-21T10:54:04;9.50;99.90
21759;DHT22;11041;50.854;20.580;2023-03-21T10:56:39;9.50;99.90
21759;DHT22;11041;50.854;20.580;2023-03-21T10:59:17;9.40;99.90
21759;DHT22;11041;50.854;20.580;2023-03-21T11:01:50;9.40;99.90
21759;DHT22;11041;50.854;20.580;2023-03-21T11:04:24;9.40;99.90
21759;DHT22;11041;50.854;20.580;2023-03-21T11:07:03;9.50;99.90
21759;DHT22;11041;50.854;20.580;2023-03-21T11:09:47;9.40;99.90
21759;DHT22;11041;50.854;20.580;2023-03-21T11:12:35;9.60;99.90
21759;DHT22;11041;50.854;20.580;2023-03-21T11:18:30;9.60;99.90
21759;DHT22;11041;50.854;20.580;2023-03-21T11:21:06;9.60;99.90
21759;DHT22;11041;50.854;20.580;2023-03-21T11:23:40;9.60;99.90
21759;DHT22;11041;50.854;20.580;2023-03-21T11:26:25;9.70;99.90
21759;DHT22;11041;50.854;20.580;2023-03-21T11:28:55;9.80;99.90
21759;DHT22;11041;50.854;20.580;2023-03-21T11:31:38;9.90;99.90
21759;DHT22;11041;50.854;20.580;2023-03-21T11:34:07;9.90;99.90
21759;DHT22;11041;50.854;20.580;2023-03-21T11:36:36;10.10;99.90
21759;DHT22;11041;50.854;20.580;2023-03-21T11:39:35;10.10;99.90
21759;DHT22;11041;50.854;20.580;2023-03-21T11:42:29;10.40;99.90
21759;DHT22;11041;50.854;20.580;2023-03-21T11:45:09;10.30;99.90
21759;DHT22;11041;50.854;20.580;2023-03-21T11:47:46;10.60;99.90
21759;DHT22;11041;50.854;20.580;2023-03-21T11:56:27;10.40;99.90
21759;DHT22;11041;50.854;20.580;2023-03-21T12:05:36;10.50;99.90
21759;DHT22;11041;50.854;20.580;2023-03-21T12:08:37;10.60;99.90
21759;DHT22;11041;50.854;20.580;2023-03-21T12:11:26;10.60;99.90
21759;DHT22;11041;50.854;20.580;2023-03-21T12:14:11;10.60;99.90
21759;DHT22;11041;50.854;20.580;2023-03-21T12:17:17;10.60;99.90
21759;DHT22;11041;50.854;20.580;2023-03-21T12:20:15;10.70;99.90
21759;DHT22;11041;50.854;20.580;2023-03-21T12:26:11;10.80;99.90
21759;DHT22;11041;50.854;20.580;2023-03-21T12:28:58;10.90;99.90
21759;DHT22;11041;50.854;20.580;2023-03-21T12:32:16;10.70;99.90
21759;DHT22;11041;50.854;20.580;2023-03-21T12:37:45;10.80;99.90
21759;DHT22;11041;50.854;20.580;2023-03-21T12:49:37;10.20;99.90
21759;DHT22;11041;50.854;20.580;2023-03-21T12:52:36;10.30;99.90
21759;DHT22;11041;50.854;20.580;2023-03-21T12:55:28;10.10;99.90
21759;DHT22;11041;50.854;20.580;2023-03-21T12:58:24;10.00;99.90
21759;DHT22;11041;50.854;20.580;2023-03-21T13:00:58;9.80;99.90
21759;DHT22;11041;50.854;20.580;2023-03-21T13:06:15;9.50;99.90
21759;DHT22;11041;50.854;20.580;2023-03-21T13:08:48;9.50;99.90
21759;DHT22;11041;50.854;20.580;2023-03-21T13:11:29;9.50;99.90
21759;DHT22;11041;50.854;20.580;2023-03-21T13:14:21;9.40;99.90
21759;DHT22;11041;50.854;20.580;2023-03-21T13:17:05;9.50;99.90
21759;DHT22;11041;50.854;20.580;2023-03-21T13:19:46;9.50;99.90
21759;DHT22;11041;50.854;20.580;2023-03-21T13:22:28;9.50;99.90
21759;DHT22;11041;50.854;20.580;2023-03-21T13:25:14;9.40;99.90
21759;DHT22;11041;50.854;20.580;2023-03-21T13:27:46;9.20;99.90
21759;DHT22;11041;50.854;20.580;2023-03-21T13:30:26;8.90;99.90
21759;DHT22;11041;50.854;20.580;2023-03-21T13:33:11;8.90;99.90
21759;DHT22;11041;50.854;20.580;2023-03-21T13:35:42;8.90;99.90
21759;DHT22;11041;50.854;20.580;2023-03-21T13:38:28;8.90;99.90
21759;DHT22;11041;50.854;20.580;2023-03-21T13:41:21;8.90;99.90
21759;DHT22;11041;50.854;20.580;2023-03-21T13:51:51;9.20;99.90
21759;DHT22;11041;50.854;20.580;2023-03-21T13:54:55;9.40;99.90
21759;DHT22;11041;50.854;20.580;2023-03-21T13:57:36;9.50;99.90
21759;DHT22;11041;50.854;20.580;2023-03-21T14:00:18;9.60;99.90
21759;DHT22;11041;50.854;20.580;2023-03-21T14:05:34;9.60;99.90
21759;DHT22;11041;50.854;20.580;2023-03-21T14:08:07;9.70;99.90
21759;DHT22;11041;50.854;20.580;2023-03-21T14:10:42;9.70;99.90
21759;DHT22;11041;50.854;20.580;2023-03-21T14:13:16;9.70;99.90
21759;DHT22;11041;50.854;20.580;2023-03-21T14:15:57;9.60;99.90
21759;DHT22;11041;50.854;20.580;2023-03-21T14:18:27;9.60;99.90
21759;DHT22;11041;50.854;20.580;2023-03-21T14:20:56;9.60;99.90
21759;DHT22;11041;50.854;20.580;2023-03-21T14:23:25;9.70;99.90
21759;DHT22;11041;50.854;20.580;2023-03-21T14:25:51;9.70;99.90
21759;DHT22;11041;50.854;20.580;2023-03-21T14:28:26;9.70;99.90
21759;DHT22;11041;50.854;20.580;2023-03-21T14:31:01;9.70;99.90
21759;DHT22;11041;50.854;20.580;2023-03-21T14:33:37;9.70;99.90
21759;DHT22;11041;50.854;20.580;2023-03-21T14:36:11;9.70;99.90
21759;DHT22;11041;50.854;20.580;2023-03-21T14:38:41;9.60;99.90
21759;DHT22;11041;50.854;20.580;2023-03-21T14:41:24;9.60;99.90
21759;DHT22;11041;50.854;20.580;2023-03-21T14:44:16;9.70;99.90
21759;DHT22;11041;50.854;20.580;2023-03-21T14:47:00;9.70;99.90
21759;DHT22;11041;50.854;20.580;2023-03-21T14:49:33;9.70;99.90
21759;DHT22;11041;50.854;20.580;2023-03-21T14:52:06;9.70;99.90
21759;DHT22;11041;50.854;20.580;2023-03-21T14:54:41;9.70;99.90
21759;DHT22;11041;50.854;20.580;2023-03-21T14:57:15;9.70;99.90
21759;DHT22;11041;50.854;20.580;2023-03-21T14:59:48;9.80;99.90
21759;DHT22;11041;50.854;20.580;2023-03-21T15:02:44;9.90;99.90
21759;DHT22;11041;50.854;20.580;2023-03-21T15:05:20;10.10;99.90
21759;DHT22;11041;50.854;20.580;2023-03-21T15:07:59;10.00;99.90
21759;DHT22;11041;50.854;20.580;2023-03-21T15:10:30;9.90;99.90
21759;DHT22;11041;50.854;20.580;2023-03-21T15:12:59;9.90;99.90
21759;DHT22;11041;50.854;20.580;2023-03-21T15:15:36;9.80;99.90
21759;DHT22;11041;50.854;20.580;2023-03-21T15:18:04;9.80;99.90
21759;DHT22;11041;50.854;20.580;2023-03-21T15:20:34;9.70;99.90
21759;DHT22;11041;50.854;20.580;2023-03-21T15:23:11;9.60;99.90
21759;DHT22;11041;50.854;20.580;2023-03-21T15:25:44;9.70;99.90
21759;DHT22;11041;50.854;20.580;2023-03-21T15:28:15;9.80;99.90
21759;DHT22;11041;50.854;20.580;2023-03-21T15:30:49;9.70;99.90
21759;DHT22;11041;50.854;20.580;2023-03-21T15:33:18;9.80;99.90
21759;DHT22;11041;50.854;20.580;2023-03-21T15:35:52;9.70;99.90
21759;DHT22;11041;50.854;20.580;2023-03-21T15:43:46;9.70;99.90
21759;DHT22;11041;50.854;20.580;2023-03-21T15:47:01;9.70;99.90
21759;DHT22;11041;50.854;20.580;2023-03-21T15:51:56;9.60;99.90
21759;DHT22;11041;50.854;20.580;2023-03-21T15:54:30;9.70;99.90
21759;DHT22;11041;50.854;20.580;2023-03-21T15:57:02;9.60;99.90
21759;DHT22;11041;50.854;20.580;2023-03-21T15:59:38;9.60;99.90
21759;DHT22;11041;50.854;20.580;2023-03-21T16:02:21;9.50;99.90
21759;DHT22;11041;50.854;20.580;2023-03-21T16:04:57;9.40;99.90
21759;DHT22;11041;50.854;20.580;2023-03-21T16:07:25;9.30;99.90
21759;DHT22;11041;50.854;20.580;2023-03-21T16:09:57;9.20;99.90
21759;DHT22;11041;50.854;20.580;2023-03-21T16:12:26;9.20;99.90
21759;DHT22;11041;50.854;20.580;2023-03-21T16:14:53;9.20;99.90
21759;DHT22;11041;50.854;20.580;2023-03-21T16:17:39;9.20;99.90
21759;DHT22;11041;50.854;20.580;2023-03-21T16:20:21;9.10;99.90
21759;DHT22;11041;50.854;20.580;2023-03-21T16:22:53;9.10;99.90
21759;DHT22;11041;50.854;20.580;2023-03-21T16:25:20;9.10;99.90
21759;DHT22;11041;50.854;20.580;2023-03-21T16:27:47;9.00;99.90
21759;DHT22;11041;50.854;20.580;2023-03-21T16:30:17;9.00;99.90
21759;DHT22;11041;50.854;20.580;2023-03-21T16:32:47;9.00;99.90
21759;DHT22;11041;50.854;20.580;2023-03-21T16:35:15;9.00;99.90
21759;DHT22;11041;50.854;20.580;2023-03-21T16:37:42;9.10;99.90
21759;DHT22;11041;50.854;20.580;2023-03-21T16:43:00;9.00;99.90
21759;DHT22;11041;50.854;20.580;2023-03-21T16:45:26;9.10;99.90
21759;DHT22;11041;50.854;20.580;2023-03-21T16:47:57;9.00;99.90
21759;DHT22;11041;50.854;20.580;2023-03-21T16:50:39;9.10;99.90
21759;DHT22;11041;50.854;20.580;2023-03-21T16:53:07;9.00;99.90
21759;DHT22;11041;50.854;20.580;2023-03-21T16:55:35;9.00;99.90
21759;DHT22;11041;50.854;20.580;2023-03-21T16:58:03;9.00;99.90
21759;DHT22;11041;50.854;20.580;2023-03-21T17:00:31;9.00;99.90
21759;DHT22;11041;50.854;20.580;2023-03-21T17:03:04;8.90;99.90
21759;DHT22;11041;50.854;20.580;2023-03-21T17:05:37;9.00;99.90
21759;DHT22;11041;50.854;20.580;2023-03-21T17:08:04;9.00;99.90
21759;DHT22;11041;50.854;20.580;2023-03-21T17:10:32;9.00;99.90
21759;DHT22;11041;50.854;20.580;2023-03-21T17:12:58;8.90;99.90
21759;DHT22;11041;50.854;20.580;2023-03-21T17:15:25;8.90;99.90
21759;DHT22;11041;50.854;20.580;2023-03-21T17:17:51;8.80;99.90
21759;DHT22;11041;50.854;20.580;2023-03-21T17:20:23;8.80;99.90
21759;DHT22;11041;50.854;20.580;2023-03-21T17:22:54;8.70;99.90
21759;DHT22;11041;50.854;20.580;2023-03-21T17:25:23;8.70;99.90
21759;DHT22;11041;50.854;20.580;2023-03-21T17:27:50;8.60;99.90
21759;DHT22;11041;50.854;20.580;2023-03-21T17:30:23;8.60;99.90
21759;DHT22;11041;50.854;20.580;2023-03-21T17:32:52;8.50;99.90
21759;DHT22;11041;50.854;20.580;2023-03-21T17:35:21;8.50;99.90
21759;DHT22;11041;50.854;20.580;2023-03-21T17:37:48;8.50;99.90
21759;DHT22;11041;50.854;20.580;2023-03-21T17:40:25;8.50;99.90
21759;DHT22;11041;50.854;20.580;2023-03-21T17:42:57;8.40;99.90
21759;DHT22;11041;50.854;20.580;2023-03-21T17:45:26;8.40;99.90
21759;DHT22;11041;50.854;20.580;2023-03-21T17:47:52;8.40;99.90
21759;DHT22;11041;50.854;20.580;2023-03-21T17:50:22;8.40;99.90
21759;DHT22;11041;50.854;20.580;2023-03-21T17:52:51;8.40;99.90
21759;DHT22;11041;50.854;20.580;2023-03-21T17:55:21;8.30;99.90